Time;durP1;ratioP1;P1;durP2;ratioP2;P2;SDS_P1;SDS_P2;PMS_P1;PMS_P2;Temp;Humidity;BMP_temperature;BMP_pressure;BME280_temperature;BME280_humidity;BME280_pressure;Samples;Min_cycle;Max_cycle;Signal;HPM_P1;HPM_P2
2021/07/21 00:00:45;;;;;;;7.87;6.83;;;16.50;99.90;;;;;;5055961;28;21065;-79
2021/07/21 00:03:11;;;;;;;7.47;6.80;;;16.60;99.90;;;;;;5056368;28;20860;-79
2021/07/21 00:05:38;;;;;;;9.23;6.90;;;16.60;99.90;;;;;;5056140;28;20290;-79
2021/07/21 00:08:07;;;;;;;8.47;6.37;;;16.60;99.90;;;;;;5055667;28;20457;-79
2021/07/21 00:10:35;;;;;;;7.70;6.90;;;16.60;99.90;;;;;;5056351;28;20454;-78
2021/07/21 00:15:55;;;;;;;6.90;6.00;;;16.60;99.90;;;;;;5055655;28;20410;-79
2021/07/21 00:18:25;;;;;;;7.27;6.57;;;16.60;99.90;;;;;;5055459;28;20444;-79
2021/07/21 00:20:52;;;;;;;6.77;6.10;;;16.70;99.90;;;;;;5054941;28;21037;-79
2021/07/21 00:23:20;;;;;;;10.93;6.47;;;16.50;99.90;;;;;;5054945;28;20446;-79
2021/07/21 00:25:47;;;;;;;7.87;6.57;;;16.50;99.90;;;;;;5055125;28;20450;-79
2021/07/21 00:28:15;;;;;;;8.43;7.50;;;16.50;99.90;;;;;;5055422;28;20468;-79
2021/07/21 00:30:42;;;;;;;8.97;6.40;;;16.70;99.90;;;;;;5054254;28;20454;-78
2021/07/21 00:33:09;;;;;;;10.03;6.87;;;16.50;99.90;;;;;;5055455;28;20482;-79
2021/07/21 00:35:35;;;;;;;8.13;6.90;;;16.40;99.90;;;;;;5055890;28;20450;-80
2021/07/21 00:38:02;;;;;;;7.70;6.90;;;16.40;99.90;;;;;;5055230;28;20441;-79
2021/07/21 00:40:30;;;;;;;9.30;7.70;;;16.50;99.90;;;;;;5055222;28;20482;-78
2021/07/21 00:42:57;;;;;;;8.90;7.47;;;16.50;99.90;;;;;;5054997;28;20520;-79
2021/07/21 00:45:23;;;;;;;8.80;8.00;;;16.50;99.90;;;;;;5055149;28;20500;-79
2021/07/21 00:47:50;;;;;;;7.20;6.50;;;16.50;99.90;;;;;;5054637;28;20450;-79
2021/07/21 00:50:17;;;;;;;8.53;7.20;;;16.40;99.90;;;;;;5055100;28;20472;-79
2021/07/21 00:52:44;;;;;;;10.17;7.77;;;16.40;99.90;;;;;;5054752;28;20512;-79
2021/07/21 00:55:13;;;;;;;6.70;6.00;;;16.40;99.90;;;;;;5055412;28;20450;-79
2021/07/21 00:57:41;;;;;;;8.57;7.40;;;16.30;99.90;;;;;;5054914;28;20449;-79
2021/07/21 01:00:12;;;;;;;14.50;7.20;;;16.30;99.90;;;;;;5058762;28;20479;-78
2021/07/21 01:02:38;;;;;;;9.43;8.23;;;16.30;99.90;;;;;;5061952;28;20520;-78
2021/07/21 01:05:09;;;;;;;10.43;7.60;;;16.30;99.90;;;;;;5061904;28;20478;-78
2021/07/21 01:07:36;;;;;;;13.17;7.83;;;16.30;99.90;;;;;;5062770;28;20434;-79
2021/07/21 01:10:03;;;;;;;10.70;7.83;;;16.30;99.90;;;;;;5057502;28;20964;-79
2021/07/21 01:12:36;;;;;;;10.27;7.60;;;16.30;99.90;;;;;;5055666;28;20477;-79
2021/07/21 01:15:12;;;;;;;10.80;7.37;;;16.40;99.90;;;;;;5055554;28;20457;-79
2021/07/21 01:17:42;;;;;;;9.87;7.53;;;16.30;99.90;;;;;;5057913;28;20434;-78
2021/07/21 01:20:36;;;;;;;7.67;6.87;;;16.30;99.90;;;;;;5056124;28;20489;-79
2021/07/21 01:23:08;;;;;;;12.23;8.13;;;16.30;99.90;;;;;;5038725;28;20513;-79
2021/07/21 01:25:42;;;;;;;9.03;7.70;;;16.30;99.90;;;;;;5060824;28;20426;-78
2021/07/21 01:28:12;;;;;;;10.30;7.40;;;16.30;99.90;;;;;;5059663;28;20426;-79
2021/07/21 01:30:40;;;;;;;7.50;6.80;;;16.20;99.90;;;;;;5058484;28;20457;-78
2021/07/21 01:33:11;;;;;;;8.23;7.10;;;16.20;99.90;;;;;;5060632;28;20489;-78
2021/07/21 01:35:39;;;;;;;13.43;8.47;;;16.20;99.90;;;;;;5061291;28;20454;-78
2021/07/21 01:38:10;;;;;;;9.17;7.47;;;16.10;99.90;;;;;;5058964;28;20797;-79
2021/07/21 01:40:42;;;;;;;10.40;7.87;;;16.10;99.90;;;;;;5057498;28;20505;-78
2021/07/21 01:43:15;;;;;;;10.37;7.87;;;16.10;99.90;;;;;;5071864;28;20441;-78
2021/07/21 01:45:45;;;;;;;10.43;8.00;;;16.10;99.90;;;;;;5072681;28;20406;-78
2021/07/21 01:48:14;;;;;;;8.70;6.87;;;16.10;99.90;;;;;;5069729;28;20517;-79
2021/07/21 01:50:41;;;;;;;9.10;8.10;;;16.00;99.90;;;;;;5060659;28;20434;-79
2021/07/21 01:53:10;;;;;;;7.83;7.07;;;16.00;99.90;;;;;;5058901;28;20512;-79
2021/07/21 01:55:37;;;;;;;9.90;8.20;;;16.00;99.90;;;;;;5058474;28;20624;-79
2021/07/21 01:58:05;;;;;;;9.37;8.10;;;15.90;99.90;;;;;;5058769;28;20446;-79
2021/07/21 02:00:34;;;;;;;9.73;7.57;;;15.90;99.90;;;;;;5058106;28;20506;-79
2021/07/21 02:03:02;;;;;;;9.63;7.67;;;15.90;99.90;;;;;;5058064;28;20474;-79
2021/07/21 02:05:30;;;;;;;10.80;7.93;;;15.90;99.90;;;;;;5058783;28;20815;-79
2021/07/21 02:07:58;;;;;;;9.30;8.27;;;15.90;99.90;;;;;;5058268;28;20629;-79
2021/07/21 02:10:27;;;;;;;13.93;8.40;;;15.90;99.90;;;;;;5058487;28;20474;-79
2021/07/21 02:12:58;;;;;;;12.17;9.23;;;15.80;99.90;;;;;;5057568;28;20481;-79
2021/07/21 02:15:25;;;;;;;8.40;7.60;;;15.90;99.90;;;;;;5060322;28;20500;-77
2021/07/21 02:17:54;;;;;;;12.23;8.63;;;15.90;99.90;;;;;;5060453;28;20442;-79
2021/07/21 02:20:25;;;;;;;9.77;7.97;;;15.90;99.90;;;;;;5057408;28;20513;-79
2021/07/21 02:22:52;;;;;;;9.73;8.73;;;15.90;99.90;;;;;;5058448;28;20485;-79
2021/07/21 02:25:23;;;;;;;13.37;9.60;;;15.80;99.90;;;;;;5059289;28;20480;-79
2021/07/21 02:27:49;;;;;;;9.70;7.53;;;15.50;99.90;;;;;;5057890;28;20916;-78
2021/07/21 02:30:16;;;;;;;12.43;8.37;;;15.80;99.90;;;;;;5058669;28;20477;-79
2021/07/21 02:32:50;;;;;;;13.30;9.17;;;15.80;99.90;;;;;;5058133;28;20512;-79
2021/07/21 02:35:21;;;;;;;12.80;8.23;;;15.80;99.90;;;;;;5058574;28;20430;-78
2021/07/21 02:37:47;;;;;;;12.53;8.30;;;15.80;99.90;;;;;;5058177;28;20488;-79
2021/07/21 02:40:15;;;;;;;11.53;9.00;;;15.80;99.90;;;;;;5057298;28;20532;-78
2021/07/21 02:42:41;;;;;;;12.80;8.13;;;15.90;99.90;;;;;;5056943;28;20491;-79
2021/07/21 02:45:09;;;;;;;13.63;8.30;;;15.90;99.90;;;;;;5057301;28;20489;-78
2021/07/21 02:47:36;;;;;;;10.93;8.87;;;16.00;99.90;;;;;;5057152;28;20481;-79
2021/07/21 02:50:04;;;;;;;10.97;8.30;;;16.00;99.90;;;;;;5057262;28;20473;-79
2021/07/21 02:52:37;;;;;;;8.97;7.27;;;16.00;99.90;;;;;;5058457;28;20521;-78
2021/07/21 02:55:11;;;;;;;10.13;8.00;;;16.00;99.90;;;;;;5059964;28;20430;-78
2021/07/21 02:57:43;;;;;;;11.00;8.17;;;16.10;99.90;;;;;;5061156;28;20445;-78
2021/07/21 03:00:13;;;;;;;11.13;8.05;;;16.00;99.90;;;;;;5061278;28;20623;-78
2021/07/21 03:02:41;;;;;;;10.60;8.27;;;16.00;99.90;;;;;;5061496;28;20251;-78
2021/07/21 03:05:10;;;;;;;19.03;11.13;;;16.00;99.90;;;;;;5062280;28;20522;-78
2021/07/21 03:07:39;;;;;;;10.20;8.27;;;16.00;99.90;;;;;;5062447;28;20588;-78
2021/07/21 03:10:07;;;;;;;12.90;9.20;;;16.00;99.90;;;;;;5061763;28;20466;-78
2021/07/21 03:12:38;;;;;;;12.87;10.10;;;16.00;99.90;;;;;;5061384;28;20488;-78
2021/07/21 03:15:06;;;;;;;11.13;9.23;;;16.00;99.90;;;;;;5059435;28;20426;-78
2021/07/21 03:17:36;;;;;;;10.60;8.50;;;16.00;99.90;;;;;;5056803;28;20446;-79
2021/07/21 03:20:04;;;;;;;12.83;8.80;;;16.00;99.90;;;;;;5056458;28;20929;-79
2021/07/21 03:22:31;;;;;;;11.93;8.60;;;16.00;99.90;;;;;;5056818;28;20484;-79
2021/07/21 03:25:01;;;;;;;14.47;9.20;;;16.00;99.90;;;;;;5056730;28;20450;-79
2021/07/21 03:27:29;;;;;;;13.10;9.53;;;16.00;99.90;;;;;;5056935;28;20482;-79
2021/07/21 03:29:56;;;;;;;17.10;12.33;;;16.10;99.90;;;;;;5057149;28;20484;-79
2021/07/21 03:32:28;;;;;;;13.33;9.20;;;16.20;99.90;;;;;;5057619;28;20603;-79
2021/07/21 03:34:56;;;;;;;12.63;9.20;;;16.20;99.90;;;;;;5057681;28;20429;-78
2021/07/21 03:37:25;;;;;;;15.70;8.40;;;16.20;99.90;;;;;;5057282;28;20478;-80
2021/07/21 03:39:55;;;;;;;11.30;8.83;;;16.20;99.90;;;;;;5057096;28;20454;-80
2021/07/21 03:42:25;;;;;;;13.90;9.77;;;16.20;99.90;;;;;;5057624;28;20553;-80
2021/07/21 03:44:53;;;;;;;12.10;9.37;;;16.20;99.90;;;;;;5056977;28;20947;-78
2021/07/21 03:47:20;;;;;;;10.83;8.70;;;16.30;99.90;;;;;;5058135;28;20500;-79
2021/07/21 03:49:47;;;;;;;9.97;7.73;;;16.10;99.90;;;;;;5056076;28;20466;-79
2021/07/21 03:52:15;;;;;;;11.80;8.57;;;16.30;99.90;;;;;;5055713;28;20553;-79
2021/07/21 03:54:42;;;;;;;10.47;9.20;;;16.30;99.90;;;;;;5056566;28;20537;-79
2021/07/21 03:57:09;;;;;;;14.70;8.87;;;16.40;99.90;;;;;;5056640;28;20446;-79
2021/07/21 03:59:38;;;;;;;11.70;8.50;;;16.50;99.90;;;;;;5056720;28;20485;-80
2021/07/21 04:02:06;;;;;;;9.70;8.03;;;16.50;99.90;;;;;;5056362;28;20547;-80
2021/07/21 04:04:34;;;;;;;12.77;9.40;;;16.50;99.90;;;;;;5056338;28;20528;-79
2021/07/21 04:07:02;;;;;;;17.87;8.60;;;16.60;99.90;;;;;;5056081;28;20473;-79
2021/07/21 04:09:32;;;;;;;10.90;8.90;;;16.50;99.90;;;;;;5056661;28;20474;-79
2021/07/21 04:12:01;;;;;;;9.67;7.33;;;16.50;99.90;;;;;;5056290;28;20934;-79
2021/07/21 04:14:29;;;;;;;13.33;10.20;;;16.60;99.90;;;;;;5055824;28;20971;-79
2021/07/21 04:16:58;;;;;;;9.93;8.60;;;16.50;99.90;;;;;;5056167;28;20532;-80
2021/07/21 04:19:25;;;;;;;10.20;8.27;;;16.50;99.90;;;;;;5058757;28;20470;-79
2021/07/21 04:21:54;;;;;;;11.33;9.10;;;16.50;99.90;;;;;;5060946;28;20544;-78
2021/07/21 04:24:22;;;;;;;11.47;9.03;;;16.50;99.90;;;;;;5060109;28;20482;-78
2021/07/21 04:26:50;;;;;;;12.73;7.37;;;16.60;99.90;;;;;;5058707;28;20446;-79
2021/07/21 04:29:19;;;;;;;10.73;8.00;;;16.60;99.90;;;;;;5059485;28;20461;-79
2021/07/21 04:31:50;;;;;;;12.33;8.00;;;16.70;99.90;;;;;;5056734;28;21027;-79
2021/07/21 04:34:18;;;;;;;11.83;7.93;;;16.70;99.90;;;;;;5056907;28;20501;-79
2021/07/21 04:36:46;;;;;;;11.33;7.90;;;16.80;99.90;;;;;;5056005;28;20846;-79
2021/07/21 04:39:18;;;;;;;9.93;7.93;;;16.80;99.90;;;;;;5056202;28;20482;-79
2021/07/21 04:41:45;;;;;;;11.27;8.70;;;16.80;99.90;;;;;;5056343;28;20532;-80
2021/07/21 04:44:12;;;;;;;9.53;8.10;;;16.80;99.90;;;;;;5055228;28;20478;-79
2021/07/21 04:46:39;;;;;;;9.03;8.13;;;16.90;99.90;;;;;;5055574;28;20937;-79
2021/07/21 04:49:09;;;;;;;9.93;7.87;;;16.90;99.90;;;;;;5055641;28;20489;-79
2021/07/21 04:51:38;;;;;;;9.87;8.00;;;16.90;99.90;;;;;;5055141;28;20469;-79
2021/07/21 04:54:07;;;;;;;16.13;8.63;;;16.90;99.90;;;;;;5055565;28;20512;-80
2021/07/21 04:56:34;;;;;;;12.23;8.40;;;17.00;99.90;;;;;;5055753;28;20519;-79
2021/07/21 04:59:01;;;;;;;10.33;7.63;;;17.10;99.90;;;;;;5055373;28;20505;-80
2021/07/21 05:01:28;;;;;;;10.57;7.77;;;17.00;99.90;;;;;;5056362;28;20862;-79
2021/07/21 05:03:55;;;;;;;11.33;7.97;;;17.00;99.90;;;;;;5055365;28;20481;-79
2021/07/21 05:06:22;;;;;;;9.47;7.13;;;17.00;99.90;;;;;;5054885;28;20525;-80
2021/07/21 05:08:51;;;;;;;11.83;9.17;;;17.00;99.90;;;;;;5055744;28;20477;-80
2021/07/21 05:11:18;;;;;;;11.33;8.13;;;17.10;99.90;;;;;;5055083;28;20505;-79
2021/07/21 05:13:44;;;;;;;9.80;8.40;;;17.30;99.90;;;;;;5055824;28;20964;-80
2021/07/21 05:16:12;;;;;;;11.67;8.87;;;17.10;99.90;;;;;;5056099;28;20485;-79
2021/07/21 05:18:38;;;;;;;8.47;7.07;;;17.10;99.90;;;;;;5055802;28;20945;-79
2021/07/21 05:21:06;;;;;;;9.33;7.50;;;17.10;99.90;;;;;;5056529;28;20537;-80
2021/07/21 05:23:33;;;;;;;10.70;7.17;;;17.10;99.90;;;;;;5057941;28;20486;-79
2021/07/21 05:26:02;;;;;;;10.77;8.43;;;17.00;99.90;;;;;;5055907;28;20937;-79
2021/07/21 05:28:29;;;;;;;11.73;8.17;;;17.00;99.90;;;;;;5054242;28;20450;-79
2021/07/21 05:30:55;;;;;;;11.47;8.47;;;17.10;99.90;;;;;;5054465;28;20445;-79
2021/07/21 05:33:22;;;;;;;10.87;8.87;;;17.10;99.90;;;;;;5068267;22;20487;-79
2021/07/21 05:35:49;;;;;;;12.70;7.63;;;17.30;99.90;;;;;;5035739;28;20447;-79
2021/07/21 05:38:17;;;;;;;12.50;10.40;;;17.20;99.90;;;;;;5036580;28;20443;-80
2021/07/21 05:40:43;;;;;;;12.00;8.57;;;17.10;99.90;;;;;;5038216;28;20514;-80
2021/07/21 05:43:11;;;;;;;9.90;8.00;;;17.30;99.90;;;;;;5038149;28;20509;-80
2021/07/21 05:45:38;;;;;;;13.20;9.07;;;17.40;99.90;;;;;;5038113;28;20466;-78
2021/07/21 05:48:05;;;;;;;12.10;8.43;;;17.40;99.90;;;;;;5037135;28;20498;-79
2021/07/21 05:50:32;;;;;;;12.37;8.10;;;17.40;99.90;;;;;;5038164;28;20490;-79
2021/07/21 05:52:59;;;;;;;9.40;8.00;;;17.40;99.90;;;;;;5040711;28;20485;-80
2021/07/21 05:55:26;;;;;;;10.97;7.90;;;17.30;99.90;;;;;;5036568;28;20577;-79
2021/07/21 05:57:53;;;;;;;13.17;8.70;;;17.40;99.90;;;;;;5037525;28;20446;-78
2021/07/21 06:00:20;;;;;;;12.80;8.40;;;17.30;99.90;;;;;;5035440;28;20496;-79
2021/07/21 06:02:47;;;;;;;10.40;7.53;;;17.50;99.90;;;;;;5035674;28;20494;-79
2021/07/21 06:05:14;;;;;;;13.30;7.70;;;17.60;99.90;;;;;;5035778;28;20478;-79
2021/07/21 06:07:40;;;;;;;11.50;7.97;;;17.60;99.90;;;;;;5035598;28;20473;-80
2021/07/21 06:10:08;;;;;;;12.20;8.40;;;17.60;99.90;;;;;;5035934;28;20509;-81
2021/07/21 06:12:35;;;;;;;10.17;7.63;;;17.50;99.90;;;;;;5035994;28;20459;-79
2021/07/21 06:15:04;;;;;;;9.57;7.37;;;17.40;99.90;;;;;;5035398;28;20450;-79
2021/07/21 06:17:32;;;;;;;14.10;8.10;;;17.60;99.90;;;;;;5035712;28;20492;-79
2021/07/21 06:19:58;;;;;;;10.40;8.77;;;17.80;99.90;;;;;;5037134;28;20432;-79
2021/07/21 06:22:28;;;;;;;11.00;7.50;;;17.90;99.90;;;;;;5035667;28;20511;-79
2021/07/21 06:24:55;;;;;;;11.90;8.10;;;17.80;99.90;;;;;;5035456;28;20459;-79
2021/07/21 06:27:21;;;;;;;11.37;8.93;;;17.90;99.90;;;;;;5036212;28;20471;-78
2021/07/21 06:29:48;;;;;;;11.30;8.27;;;17.90;99.90;;;;;;5046287;28;20453;-77
2021/07/21 06:32:14;;;;;;;10.17;7.90;;;17.80;99.90;;;;;;5044695;28;20506;-78
2021/07/21 06:34:42;;;;;;;9.77;6.60;;;17.90;99.90;;;;;;5043005;28;20447;-79
2021/07/21 06:37:09;;;;;;;14.57;8.37;;;18.00;99.90;;;;;;5039334;28;20447;-80
2021/07/21 06:39:35;;;;;;;10.43;7.50;;;18.00;99.90;;;;;;5039686;28;20826;-79
2021/07/21 06:42:02;;;;;;;9.45;7.15;;;18.00;99.90;;;;;;5038693;28;20486;-79
2021/07/21 06:44:29;;;;;;;11.07;7.60;;;18.20;99.90;;;;;;5039113;28;20235;-79
2021/07/21 06:46:55;;;;;;;7.27;6.03;;;18.10;99.90;;;;;;5038983;28;20512;-79
2021/07/21 06:49:22;;;;;;;12.80;7.90;;;18.20;99.90;;;;;;5039113;28;20481;-80
2021/07/21 06:51:50;;;;;;;10.77;7.83;;;18.40;99.90;;;;;;5045833;28;20531;-79
2021/07/21 06:54:18;;;;;;;9.50;6.87;;;18.30;99.90;;;;;;5042455;28;20455;-79
2021/07/21 06:56:44;;;;;;;8.53;7.20;;;18.50;99.90;;;;;;5041189;28;20481;-80
2021/07/21 06:59:11;;;;;;;8.73;6.97;;;18.50;99.90;;;;;;5048175;28;20451;-78
2021/07/21 07:01:37;;;;;;;12.00;6.67;;;18.50;99.90;;;;;;5050067;28;20491;-78
2021/07/21 07:04:04;;;;;;;8.90;7.10;;;18.60;99.90;;;;;;5049294;28;20821;-78
2021/07/21 07:06:31;;;;;;;8.80;5.87;;;18.50;99.90;;;;;;5043061;28;20993;-79
2021/07/21 07:08:59;;;;;;;9.77;6.53;;;18.70;99.90;;;;;;5041625;28;20485;-79
2021/07/21 07:11:25;;;;;;;9.40;6.57;;;18.70;99.90;;;;;;5041769;28;20799;-78
2021/07/21 07:13:52;;;;;;;11.67;7.00;;;18.70;99.90;;;;;;5041163;28;20457;-78
2021/07/21 07:16:18;;;;;;;10.90;7.60;;;18.80;99.90;;;;;;5041141;28;20483;-80
2021/07/21 07:18:45;;;;;;;8.93;7.00;;;18.80;99.90;;;;;;5043382;28;20477;-80
2021/07/21 07:21:11;;;;;;;8.33;5.67;;;18.60;99.90;;;;;;5050309;28;20220;-80
2021/07/21 07:23:38;;;;;;;7.97;6.80;;;18.70;99.90;;;;;;5041656;28;20471;-78
2021/07/21 07:26:06;;;;;;;6.63;6.03;;;18.80;99.90;;;;;;5051163;28;20446;-78
2021/07/21 07:28:33;;;;;;;7.47;6.63;;;19.00;99.90;;;;;;5052853;28;20443;-78
2021/07/21 07:30:59;;;;;;;11.57;8.90;;;19.10;99.90;;;;;;5046826;28;20451;-79
2021/07/21 07:33:26;;;;;;;7.17;6.00;;;19.10;99.90;;;;;;5038207;28;20513;-80
2021/07/21 07:35:52;;;;;;;11.43;6.77;;;19.10;99.90;;;;;;5038567;28;20503;-80
2021/07/21 07:38:19;;;;;;;14.70;6.77;;;19.00;99.90;;;;;;5037897;28;20471;-79
2021/07/21 07:40:46;;;;;;;6.20;5.60;;;19.20;99.90;;;;;;5038864;28;20505;-79
2021/07/21 07:43:14;;;;;;;6.50;5.23;;;19.20;99.90;;;;;;5038968;28;20513;-79
2021/07/21 07:45:40;;;;;;;8.00;5.60;;;19.50;99.90;;;;;;5044952;28;20447;-78
2021/07/21 07:48:07;;;;;;;7.13;6.33;;;19.60;99.90;;;;;;5040337;28;20497;-78
2021/07/21 07:50:34;;;;;;;12.40;8.60;;;19.70;99.90;;;;;;5037877;28;20443;-77
2021/07/21 07:53:00;;;;;;;6.47;5.87;;;19.90;99.90;;;;;;5041199;28;20978;-79
2021/07/21 07:55:29;;;;;;;5.80;5.10;;;19.80;99.90;;;;;;5037563;28;20779;-79
2021/07/21 07:57:55;;;;;;;4.90;4.50;;;19.80;99.90;;;;;;5038039;28;20447;-79
2021/07/21 08:00:23;;;;;;;7.07;4.97;;;19.90;99.90;;;;;;5038190;28;20514;-79
2021/07/21 08:02:50;;;;;;;4.53;4.10;;;20.10;99.90;;;;;;5038210;28;20494;-79
2021/07/21 08:05:16;;;;;;;7.00;5.23;;;20.20;99.90;;;;;;5037991;28;20451;-79
2021/07/21 08:07:43;;;;;;;7.07;5.40;;;20.00;99.90;;;;;;5037570;28;20447;-79
2021/07/21 08:10:13;;;;;;;10.37;7.20;;;20.00;99.90;;;;;;5037886;28;20486;-78
2021/07/21 08:12:41;;;;;;;8.97;7.10;;;20.00;99.90;;;;;;5038588;28;20486;-78
2021/07/21 08:15:09;;;;;;;6.20;5.60;;;20.10;99.90;;;;;;5037471;28;20492;-79
2021/07/21 08:17:37;;;;;;;6.80;5.87;;;20.10;99.90;;;;;;5039487;28;20790;-78
2021/07/21 08:20:06;;;;;;;7.43;6.30;;;20.20;99.90;;;;;;5036891;28;20490;-79
2021/07/21 08:22:38;;;;;;;7.30;6.00;;;20.30;99.90;;;;;;5037907;28;20552;-79
2021/07/21 08:25:07;;;;;;;6.70;6.00;;;20.30;99.90;;;;;;5036869;28;20428;-79
2021/07/21 08:27:34;;;;;;;7.97;5.63;;;20.30;99.90;;;;;;5037435;28;20436;-79
2021/07/21 08:30:00;;;;;;;5.80;4.87;;;20.40;99.90;;;;;;5037272;28;20477;-78
2021/07/21 08:32:27;;;;;;;6.23;5.63;;;20.40;99.90;;;;;;5038975;28;20487;-79
2021/07/21 08:34:55;;;;;;;6.53;5.70;;;20.20;99.90;;;;;;5037405;28;20451;-79
2021/07/21 08:37:22;;;;;;;5.80;5.20;;;20.10;99.90;;;;;;5037741;28;20407;-79
2021/07/21 08:39:48;;;;;;;6.90;5.90;;;20.20;99.90;;;;;;5037145;28;20467;-79
2021/07/21 08:42:16;;;;;;;8.20;6.47;;;20.40;99.90;;;;;;5036802;28;21021;-78
2021/07/21 08:44:42;;;;;;;7.13;5.93;;;20.40;99.90;;;;;;5037010;28;20466;-78
2021/07/21 08:47:09;;;;;;;7.90;5.43;;;20.20;99.90;;;;;;5036886;28;20447;-79
2021/07/21 08:49:36;;;;;;;7.90;5.33;;;20.30;99.90;;;;;;5037184;28;20451;-79
2021/07/21 08:52:07;;;;;;;5.70;4.90;;;20.40;99.90;;;;;;5035757;28;20857;-79
2021/07/21 08:54:35;;;;;;;7.23;5.67;;;20.40;99.90;;;;;;5036715;28;20435;-80
2021/07/21 08:57:02;;;;;;;6.90;5.83;;;20.40;99.90;;;;;;5038820;28;20475;-77
2021/07/21 08:59:29;;;;;;;10.30;5.50;;;20.40;99.90;;;;;;5044115;28;20831;-77
2021/07/21 09:01:57;;;;;;;7.43;5.30;;;20.40;99.90;;;;;;5044503;28;20836;-78
2021/07/21 09:04:23;;;;;;;7.80;5.10;;;20.20;99.90;;;;;;5041007;28;20471;-79
2021/07/21 09:06:51;;;;;;;5.27;4.47;;;20.30;99.90;;;;;;5038232;28;20443;-79
2021/07/21 09:09:19;;;;;;;6.00;5.30;;;20.10;99.90;;;;;;5037462;28;20488;-78
2021/07/21 09:11:46;;;;;;;5.70;4.87;;;20.20;99.90;;;;;;5038622;28;20470;-78
2021/07/21 09:14:12;;;;;;;5.82;4.38;;;20.40;99.90;;;;;;5037157;28;20473;-78
2021/07/21 09:16:39;;;;;;;5.83;5.20;;;20.40;99.90;;;;;;5038184;28;20209;-77
2021/07/21 09:19:05;;;;;;;5.50;4.97;;;20.30;99.90;;;;;;5039570;28;20451;-78
2021/07/21 09:21:32;;;;;;;5.80;4.90;;;20.10;99.90;;;;;;5037565;28;20474;-78
2021/07/21 09:23:59;;;;;;;6.30;5.70;;;20.00;99.90;;;;;;5037850;28;20470;-78
2021/07/21 09:26:41;;;;;;;6.63;5.07;;;20.10;99.90;;;;;;5037451;28;20478;-77
2021/07/21 09:29:08;;;;;;;6.70;5.30;;;20.10;99.90;;;;;;5038034;28;20435;-79
2021/07/21 09:31:37;;;;;;;6.73;5.90;;;20.20;99.90;;;;;;5037205;28;20537;-78
2021/07/21 09:34:23;;;;;;;5.30;4.80;;;20.20;99.90;;;;;;5037473;28;20453;-78
2021/07/21 09:37:00;;;;;;;7.67;5.37;;;20.30;99.90;;;;;;5036967;28;20431;-78
2021/07/21 09:39:32;;;;;;;7.20;5.33;;;20.30;99.90;;;;;;5036758;28;20898;-78
2021/07/21 09:42:00;;;;;;;4.60;4.20;;;20.40;99.90;;;;;;5037421;28;20490;-80
2021/07/21 09:44:34;;;;;;;7.80;5.27;;;20.30;99.90;;;;;;5037478;28;20501;-78
2021/07/21 09:47:16;;;;;;;5.30;4.30;;;20.40;99.90;;;;;;5037104;28;20474;-79
2021/07/21 09:49:44;;;;;;;6.07;4.93;;;20.30;99.90;;;;;;5044612;28;20455;-77
2021/07/21 09:52:18;;;;;;;5.37;4.80;;;20.20;99.90;;;;;;5048740;28;20463;-78
2021/07/21 09:55:04;;;;;;;5.50;4.20;;;20.10;99.90;;;;;;5049724;28;20434;-78
2021/07/21 09:57:33;;;;;;;6.10;4.77;;;20.20;99.90;;;;;;5047323;28;20458;-80
2021/07/21 09:59:59;;;;;;;4.57;4.17;;;20.40;99.90;;;;;;5039302;28;20443;-80
2021/07/21 10:02:27;;;;;;;6.30;4.43;;;20.60;99.90;;;;;;5037662;28;20506;-80
2021/07/21 10:04:54;;;;;;;3.67;2.80;;;20.70;99.90;;;;;;5040227;28;20451;-80
2021/07/21 10:07:48;;;;;;;4.40;4.00;;;20.70;99.90;;;;;;5039712;28;20546;-79
2021/07/21 10:10:17;;;;;;;3.87;3.43;;;20.70;99.90;;;;;;5043306;28;20526;-78
2021/07/21 10:12:57;;;;;;;6.00;3.10;;;20.70;99.90;;;;;;5044297;28;20467;-79
2021/07/21 10:15:24;;;;;;;3.90;3.50;;;21.10;99.90;;;;;;5043619;28;20778;-77
2021/07/21 10:18:05;;;;;;;3.93;3.53;;;21.10;99.90;;;;;;5049853;28;20457;-77
2021/07/21 10:20:32;;;;;;;4.80;3.67;;;21.10;99.90;;;;;;5052577;28;20494;-78
2021/07/21 10:22:58;;;;;;;4.33;3.60;;;21.10;99.90;;;;;;5053590;28;20486;-77
2021/07/21 10:25:26;;;;;;;3.03;2.70;;;21.10;99.90;;;;;;5052844;28;20447;-78
2021/07/21 10:27:57;;;;;;;4.13;3.53;;;21.20;99.90;;;;;;5050438;28;20501;-79
2021/07/21 10:30:24;;;;;;;5.37;3.40;;;21.20;99.90;;;;;;5049574;28;20427;-76
2021/07/21 10:32:51;;;;;;;3.93;3.40;;;21.20;99.90;;;;;;5049882;28;20475;-78
2021/07/21 10:35:19;;;;;;;2.90;2.70;;;21.30;99.90;;;;;;5050688;28;20447;-77
2021/07/21 10:37:46;;;;;;;5.17;3.03;;;21.40;99.90;;;;;;5043312;28;20509;-77
2021/07/21 10:40:14;;;;;;;3.90;3.50;;;21.40;99.90;;;;;;5041183;28;20490;-81
2021/07/21 10:42:41;;;;;;;4.10;2.70;;;21.40;99.90;;;;;;5046199;28;20830;-78
2021/07/21 10:45:16;;;;;;;3.60;3.30;;;21.30;99.90;;;;;;5051750;28;20451;-78
2021/07/21 10:47:47;;;;;;;4.00;3.33;;;21.30;99.90;;;;;;5053325;28;20439;-77
2021/07/21 10:50:40;;;;;;;4.77;3.20;;;21.20;99.90;;;;;;5052546;28;20450;-78
2021/07/21 10:53:48;;;;;;;6.33;5.23;;;21.30;99.90;;;;;;5042612;28;20466;-80
2021/07/21 10:59:13;;;;;;;5.77;4.50;;;21.40;99.90;;;;;;5029791;28;20431;-78
2021/07/21 11:01:42;;;;;;;3.37;3.10;;;21.30;99.90;;;;;;5043399;28;20470;-80
2021/07/21 11:04:09;;;;;;;4.93;3.73;;;21.40;99.90;;;;;;5041366;28;20474;-79
2021/07/21 11:06:37;;;;;;;6.90;5.67;;;21.40;99.90;;;;;;5041079;28;20477;-79
2021/07/21 11:09:16;;;;;;;10.50;5.83;;;21.20;99.90;;;;;;5041119;28;20485;-80
2021/07/21 11:11:44;;;;;;;3.93;3.43;;;21.30;99.90;;;;;;5042853;28;20467;-79
2021/07/21 11:14:16;;;;;;;3.67;3.20;;;21.30;99.90;;;;;;5041032;28;20444;-79
2021/07/21 11:16:47;;;;;;;3.00;2.70;;;21.20;99.90;;;;;;5039034;28;20455;-78
2021/07/21 11:19:45;;;;;;;4.20;3.63;;;21.50;99.90;;;;;;5038201;28;20462;-80
2021/07/21 11:22:24;;;;;;;3.80;3.10;;;21.60;99.90;;;;;;5039304;28;20467;-78
2021/07/21 11:25:18;;;;;;;4.30;3.90;;;21.60;99.90;;;;;;5041825;28;20510;-77
2021/07/21 11:27:46;;;;;;;3.03;2.80;;;21.50;99.90;;;;;;5042891;28;20432;-80
2021/07/21 11:30:38;;;;;;;3.63;3.33;;;21.50;99.90;;;;;;5039703;28;20860;-78
2021/07/21 11:33:42;;;;;;;4.33;3.20;;;21.50;99.90;;;;;;5074732;22;21078;-78
2021/07/21 11:36:11;;;;;;;5.53;3.60;;;21.40;99.90;;;;;;5057555;28;20489;-78
2021/07/21 11:38:49;;;;;;;3.83;3.47;;;21.40;99.90;;;;;;5059623;28;20446;-77
2021/07/21 11:41:50;;;;;;;5.90;4.03;;;21.50;99.90;;;;;;5059014;28;20446;-79
2021/07/21 11:44:25;;;;;;;8.57;6.00;;;21.50;99.90;;;;;;5038627;28;20569;-78
2021/07/21 11:46:52;;;;;;;3.50;3.03;;;21.50;99.90;;;;;;5037868;28;20446;-78
2021/07/21 11:49:20;;;;;;;4.87;3.80;;;21.40;99.90;;;;;;5038098;28;20484;-79
2021/07/21 11:51:57;;;;;;;9.27;2.70;;;20.90;99.90;;;;;;5038571;28;20458;-78
2021/07/21 11:54:27;;;;;;;4.20;3.37;;;20.70;99.90;;;;;;5040290;28;20428;-79
2021/07/21 11:56:54;;;;;;;4.87;3.13;;;21.20;99.90;;;;;;5039877;28;20462;-79
2021/07/21 11:59:29;;;;;;;3.30;2.90;;;21.20;99.90;;;;;;5039905;28;20485;-78
2021/07/21 12:02:07;;;;;;;8.93;3.80;;;21.30;99.90;;;;;;5039706;28;20523;-78
2021/07/21 12:04:34;;;;;;;4.67;3.73;;;21.20;99.90;;;;;;5040616;28;20470;-77
2021/07/21 12:07:05;;;;;;;4.70;4.20;;;21.10;99.90;;;;;;5046246;28;20447;-78
2021/07/21 12:09:34;;;;;;;5.13;3.50;;;21.10;99.90;;;;;;5043550;28;20424;-80
2021/07/21 12:12:02;;;;;;;3.50;3.20;;;21.10;99.90;;;;;;5041012;28;20467;-78
2021/07/21 12:14:29;;;;;;;4.87;3.37;;;21.20;99.90;;;;;;5044529;28;20446;-78
2021/07/21 12:17:05;;;;;;;3.70;3.30;;;21.20;99.90;;;;;;5042618;28;20462;-78
2021/07/21 12:19:31;;;;;;;3.50;2.70;;;21.20;99.90;;;;;;5040547;28;20971;-78
2021/07/21 12:22:07;;;;;;;3.73;2.50;;;21.30;99.90;;;;;;5041529;28;20467;-78
2021/07/21 12:24:35;;;;;;;4.40;3.30;;;21.30;99.90;;;;;;5041289;28;20466;-79
2021/07/21 12:27:03;;;;;;;3.47;3.17;;;;;;;;;;5042741;28;20819;-79
2021/07/21 12:29:29;;;;;;;4.97;3.40;;;21.30;99.90;;;;;;5037805;28;20451;-80
2021/07/21 12:32:04;;;;;;;4.93;3.87;;;21.20;99.90;;;;;;5037189;28;20502;-79
2021/07/21 12:34:31;;;;;;;8.80;5.20;;;21.20;99.90;;;;;;5037901;28;20454;-79
2021/07/21 12:36:57;;;;;;;12.50;7.93;;;21.20;99.90;;;;;;5038331;28;20957;-79
2021/07/21 12:39:28;;;;;;;8.70;6.07;;;21.10;99.90;;;;;;5037302;28;20447;-79
2021/07/21 12:41:55;;;;;;;6.07;4.80;;;21.00;99.90;;;;;;5038532;28;20471;-79
2021/07/21 12:44:26;;;;;;;11.90;5.60;;;21.00;99.90;;;;;;5038282;28;20498;-80
2021/07/21 12:47:12;;;;;;;21.73;13.97;;;20.90;99.90;;;;;;5042955;28;20436;-79
2021/07/21 12:49:40;;;;;;;24.07;13.10;;;21.00;99.90;;;;;;5041964;28;20431;-79
2021/07/21 12:52:10;;;;;;;4.43;3.90;;;20.90;99.90;;;;;;5039955;28;20476;-80
2021/07/21 12:54:38;;;;;;;6.03;3.80;;;20.90;99.90;;;;;;5042529;28;20497;-78
2021/07/21 12:57:06;;;;;;;3.83;2.77;;;20.90;99.90;;;;;;5042255;28;20435;-78
2021/07/21 12:59:37;;;;;;;2.90;2.70;;;21.10;99.90;;;;;;5041812;28;20937;-78